Time;durP1;ratioP1;P1;durP2;ratioP2;P2;SDS_P1;SDS_P2;PMS_P1;PMS_P2;Temp;Humidity;BMP_temperature;BMP_pressure;BME280_temperature;BME280_humidity;BME280_pressure;Samples;Min_cycle;Max_cycle;Signal;HPM_P1;HPM_P2
2021/10/23 00:02:24;;;;;;;55.08;28.15;;;6.00;99.90;;;;;;5021510;28;20045;-84
2021/10/23 00:04:51;;;;;;;51.63;28.05;;;6.00;99.90;;;;;;5023221;28;20048;-84
2021/10/23 00:07:20;;;;;;;63.90;28.13;;;6.00;99.90;;;;;;5010309;28;20051;-83
2021/10/23 00:09:46;;;;;;;67.25;27.27;;;6.10;99.90;;;;;;4992816;28;20048;-83
2021/10/23 00:12:13;;;;;;;71.13;29.60;;;6.10;99.90;;;;;;5034142;28;20042;-84
2021/10/23 00:14:42;;;;;;;61.13;27.00;;;6.10;99.90;;;;;;5001257;28;20050;-83
2021/10/23 00:17:09;;;;;;;59.67;28.77;;;6.00;99.90;;;;;;5020930;28;20099;-84
2021/10/23 00:19:37;;;;;;;50.10;27.60;;;6.10;99.90;;;;;;5021279;28;20079;-85
2021/10/23 00:22:04;;;;;;;61.65;27.52;;;6.00;99.90;;;;;;5007824;28;20049;-83
2021/10/23 00:24:31;;;;;;;89.15;28.65;;;5.90;99.90;;;;;;5022341;28;20060;-84
2021/10/23 00:26:58;;;;;;;60.95;28.50;;;5.90;99.90;;;;;;5005981;28;20045;-82
2021/10/23 00:29:25;;;;;;;61.33;26.73;;;6.00;99.90;;;;;;5018962;28;20068;-83
2021/10/23 00:31:52;;;;;;;62.25;25.88;;;5.90;99.90;;;;;;5002019;28;20094;-82
2021/10/23 00:34:20;;;;;;;51.08;26.08;;;5.90;99.90;;;;;;5020219;28;20142;-82
2021/10/23 00:36:49;;;;;;;55.75;26.67;;;5.80;99.90;;;;;;5001921;28;20048;-82
2021/10/23 00:39:15;;;;;;;60.15;26.73;;;5.80;99.90;;;;;;5018277;28;20036;-84
2021/10/23 00:42:04;;;;;;;56.00;26.80;;;5.90;99.90;;;;;;5038617;28;20048;-83
2021/10/23 00:44:37;;;;;;;53.35;25.85;;;5.80;99.90;;;;;;5019831;28;20041;-84
2021/10/23 00:47:16;;;;;;;58.45;26.77;;;5.70;99.90;;;;;;5013349;28;20045;-83
2021/10/23 00:49:45;;;;;;;63.47;28.38;;;5.80;99.90;;;;;;5025522;28;20049;-84
2021/10/23 00:52:13;;;;;;;66.82;31.48;;;5.80;99.90;;;;;;5007693;28;20045;-83
2021/10/23 00:54:40;;;;;;;72.20;32.30;;;5.80;99.90;;;;;;5016191;28;20232;-81
2021/10/23 00:57:07;;;;;;;64.93;31.30;;;5.80;99.90;;;;;;5048916;28;20101;-82
2021/10/23 00:59:35;;;;;;;68.18;34.53;;;5.70;99.90;;;;;;5025888;28;20053;-82
2021/10/23 01:02:03;;;;;;;71.00;34.03;;;5.80;99.90;;;;;;5023691;28;20178;-82
2021/10/23 01:04:49;;;;;;;78.65;34.42;;;5.70;99.90;;;;;;5004013;28;20053;-83
2021/10/23 01:07:16;;;;;;;68.85;34.85;;;5.80;99.90;;;;;;4995623;28;20049;-81
2021/10/23 01:09:44;;;;;;;77.32;37.08;;;5.80;99.90;;;;;;5005900;28;20048;-82
2021/10/23 01:12:13;;;;;;;73.95;36.35;;;5.80;99.90;;;;;;4999398;28;20079;-82
2021/10/23 01:14:43;;;;;;;77.72;37.85;;;5.80;99.90;;;;;;5002453;28;20053;-82
2021/10/23 01:17:10;;;;;;;87.03;42.75;;;5.80;99.90;;;;;;5017001;28;20055;-82
2021/10/23 01:19:37;;;;;;;89.55;41.55;;;5.80;99.90;;;;;;5045522;28;20049;-82
2021/10/23 01:22:05;;;;;;;86.75;43.05;;;5.80;99.90;;;;;;5032157;28;20414;-82
2021/10/23 01:24:32;;;;;;;89.68;44.88;;;5.80;99.90;;;;;;5034170;28;20391;-82
2021/10/23 01:26:59;;;;;;;104.63;48.58;;;5.90;99.90;;;;;;5033523;28;20056;-82
2021/10/23 01:29:25;;;;;;;112.18;51.95;;;5.90;99.90;;;;;;5007607;28;20059;-82
2021/10/23 01:31:53;;;;;;;110.57;53.22;;;6.00;99.90;;;;;;4995544;28;20053;-81
2021/10/23 01:34:26;;;;;;;122.10;54.47;;;6.00;99.90;;;;;;5004652;28;20049;-82
2021/10/23 01:36:55;;;;;;;122.05;54.58;;;6.00;99.90;;;;;;5040844;28;20056;-82
2021/10/23 01:39:24;;;;;;;118.82;53.63;;;6.00;99.90;;;;;;5023273;28;20041;-83
2021/10/23 01:41:51;;;;;;;113.40;57.78;;;5.90;99.90;;;;;;5004763;28;20056;-83
2021/10/23 01:44:22;;;;;;;114.03;56.67;;;5.90;99.90;;;;;;5019600;28;20049;-83
2021/10/23 01:46:49;;;;;;;130.20;59.50;;;5.90;99.90;;;;;;5023521;28;20037;-81
2021/10/23 01:49:16;;;;;;;120.32;59.83;;;6.00;99.90;;;;;;5028036;28;20041;-84
2021/10/23 01:51:43;;;;;;;114.60;55.78;;;6.00;99.90;;;;;;5021880;28;20053;-82
2021/10/23 01:54:11;;;;;;;105.93;55.75;;;6.00;99.90;;;;;;5020058;28;20056;-82
2021/10/23 01:56:40;;;;;;;113.95;54.72;;;6.00;99.90;;;;;;5000679;28;20053;-81
2021/10/23 01:59:09;;;;;;;116.43;55.38;;;6.00;99.90;;;;;;5016864;28;20053;-84
2021/10/23 02:01:35;;;;;;;119.95;52.28;;;6.00;99.90;;;;;;5012707;28;20052;-82
2021/10/23 02:04:03;;;;;;;106.38;52.03;;;6.00;99.90;;;;;;4997614;28;20333;-84
2021/10/23 02:06:30;;;;;;;95.70;50.78;;;6.00;99.90;;;;;;4998240;28;20033;-81
2021/10/23 02:08:57;;;;;;;107.47;51.22;;;6.00;99.90;;;;;;5015148;28;20100;-82
2021/10/23 02:11:24;;;;;;;96.65;48.15;;;5.90;99.90;;;;;;5017394;28;20037;-82
2021/10/23 02:13:51;;;;;;;88.22;46.78;;;5.90;99.90;;;;;;5017744;28;20044;-83
2021/10/23 02:16:18;;;;;;;89.65;46.03;;;5.80;99.90;;;;;;5017194;28;20582;-81
2021/10/23 02:18:45;;;;;;;95.47;47.50;;;5.80;99.90;;;;;;5014883;28;20037;-82
2021/10/23 02:21:13;;;;;;;72.97;37.58;;;5.90;99.90;;;;;;5026238;28;20075;-82
2021/10/23 02:23:40;;;;;;;97.13;44.00;;;5.90;99.90;;;;;;5031484;23;20502;-69
2021/10/23 02:26:06;;;;;;;97.95;47.47;;;5.90;99.90;;;;;;5023686;28;20449;-70
2021/10/23 02:28:33;;;;;;;91.60;45.95;;;5.90;99.90;;;;;;4991921;28;20054;-69
2021/10/23 02:31:01;;;;;;;82.60;42.75;;;5.90;99.90;;;;;;4988785;28;20685;-70
2021/10/23 02:33:28;;;;;;;92.03;45.05;;;6.00;99.90;;;;;;5021819;28;20224;-69
2021/10/23 02:35:55;;;;;;;89.95;42.80;;;5.90;99.90;;;;;;5016576;28;20060;-68
2021/10/23 02:38:21;;;;;;;93.45;46.10;;;6.00;99.90;;;;;;5020147;28;20552;-69
2021/10/23 02:40:48;;;;;;;93.03;45.90;;;5.90;99.90;;;;;;5024564;28;20095;-68
2021/10/23 02:43:15;;;;;;;93.45;44.55;;;5.90;99.90;;;;;;5004673;28;20040;-72
2021/10/23 02:45:44;;;;;;;89.88;45.40;;;5.90;99.90;;;;;;5021392;28;20196;-69
2021/10/23 02:48:11;;;;;;;91.82;45.97;;;5.90;99.90;;;;;;5017277;28;20145;-69
2021/10/23 02:50:38;;;;;;;84.35;45.25;;;5.90;99.90;;;;;;5021293;28;20091;-69
2021/10/23 02:53:05;;;;;;;94.40;46.08;;;5.80;99.90;;;;;;5022709;28;20061;-71
2021/10/23 02:55:32;;;;;;;102.40;49.95;;;5.80;99.90;;;;;;5021591;28;20061;-69
2021/10/23 02:57:58;;;;;;;110.63;49.08;;;5.90;99.90;;;;;;5021153;28;20050;-69
2021/10/23 03:00:26;;;;;;;106.85;50.33;;;5.90;99.90;;;;;;5021538;28;20065;-72
2021/10/23 03:02:53;;;;;;;102.18;50.83;;;5.90;99.90;;;;;;5020939;28;20060;-72
2021/10/23 03:05:20;;;;;;;114.47;49.30;;;5.90;99.90;;;;;;5020018;28;20049;-68
2021/10/23 03:07:47;;;;;;;105.82;50.55;;;6.00;99.90;;;;;;5027778;28;20056;-70
2021/10/23 03:10:14;;;;;;;102.57;50.15;;;5.90;99.90;;;;;;5033678;23;20065;-79
2021/10/23 03:12:41;;;;;;;103.78;51.17;;;5.90;99.90;;;;;;5044047;28;20065;-80
2021/10/23 03:15:09;;;;;;;98.82;47.38;;;5.90;99.90;;;;;;5034226;28;20077;-79
2021/10/23 03:17:37;;;;;;;88.25;45.42;;;6.00;99.90;;;;;;5040251;28;20426;-79
2021/10/23 03:20:05;;;;;;;91.10;47.30;;;5.90;99.90;;;;;;5004380;28;20109;-80
2021/10/23 03:22:32;;;;;;;99.82;48.42;;;6.00;99.90;;;;;;5030697;28;20107;-80
2021/10/23 03:24:58;;;;;;;92.82;42.80;;;6.00;99.90;;;;;;5016014;28;20230;-79
2021/10/23 03:27:25;;;;;;;90.32;41.70;;;6.00;99.90;;;;;;5018243;28;20064;-79
2021/10/23 03:29:53;;;;;;;82.53;42.20;;;6.00;99.90;;;;;;5031585;28;20042;-79
2021/10/23 03:32:20;;;;;;;82.95;39.97;;;6.00;99.90;;;;;;4996689;28;20061;-80
2021/10/23 03:34:47;;;;;;;80.55;40.60;;;6.00;99.90;;;;;;5012845;28;20280;-79
2021/10/23 03:37:14;;;;;;;91.97;45.63;;;6.00;99.90;;;;;;5017520;28;20053;-80
2021/10/23 03:39:42;;;;;;;87.50;43.45;;;6.00;99.90;;;;;;5032799;28;20065;-80
2021/10/23 03:42:08;;;;;;;99.55;43.25;;;6.10;99.90;;;;;;5025250;28;20060;-79
2021/10/23 03:44:35;;;;;;;91.85;44.33;;;6.00;99.90;;;;;;5016693;28;20050;-80
2021/10/23 03:47:03;;;;;;;101.60;47.47;;;6.00;99.90;;;;;;5016373;28;20049;-80
2021/10/23 03:49:30;;;;;;;102.78;48.03;;;6.00;99.90;;;;;;5022018;28;20049;-79
2021/10/23 03:51:58;;;;;;;104.30;49.00;;;6.10;99.90;;;;;;5029973;28;20423;-79
2021/10/23 03:54:25;;;;;;;97.25;46.55;;;6.10;99.90;;;;;;5042886;28;20321;-80
2021/10/23 03:56:52;;;;;;;103.50;49.03;;;6.00;99.90;;;;;;5020078;28;20149;-79
2021/10/23 03:59:19;;;;;;;113.60;52.17;;;6.10;99.90;;;;;;4994598;28;20096;-79
2021/10/23 04:01:46;;;;;;;109.53;50.03;;;6.10;99.90;;;;;;5011691;28;20129;-80
2021/10/23 04:04:14;;;;;;;105.97;50.13;;;6.20;99.90;;;;;;5006766;28;20042;-80
2021/10/23 04:06:41;;;;;;;102.50;50.08;;;6.20;99.90;;;;;;4992408;28;20052;-79
2021/10/23 04:09:08;;;;;;;112.13;52.65;;;6.10;99.90;;;;;;5014583;28;20053;-79
2021/10/23 04:11:35;;;;;;;119.32;54.78;;;6.20;99.90;;;;;;5006418;28;20041;-79
2021/10/23 04:14:03;;;;;;;102.35;50.95;;;6.10;99.90;;;;;;5007069;28;20502;-79
2021/10/23 04:16:30;;;;;;;117.30;52.60;;;6.10;99.90;;;;;;5003308;28;20073;-80
2021/10/23 04:19:04;;;;;;;113.88;53.05;;;6.10;99.90;;;;;;5033546;28;20501;-80
2021/10/23 04:21:42;;;;;;;123.57;53.15;;;6.10;99.90;;;;;;5028289;28;20122;-80
2021/10/23 04:24:14;;;;;;;121.20;55.78;;;6.10;99.90;;;;;;5016171;28;20049;-80
2021/10/23 04:26:45;;;;;;;128.80;54.72;;;6.10;99.90;;;;;;5026805;28;20056;-79
2021/10/23 04:29:12;;;;;;;138.35;60.25;;;6.20;99.90;;;;;;5026048;28;20486;-78
2021/10/23 04:31:39;;;;;;;124.10;55.20;;;6.20;99.90;;;;;;5025687;28;20091;-80
2021/10/23 04:34:06;;;;;;;136.88;58.88;;;6.20;99.90;;;;;;5022851;28;20130;-80
2021/10/23 04:36:34;;;;;;;117.20;54.25;;;6.20;99.90;;;;;;5012141;28;20425;-80
2021/10/23 04:39:00;;;;;;;125.82;58.65;;;6.20;99.90;;;;;;5036673;28;20625;-80
2021/10/23 04:41:27;;;;;;;127.85;58.15;;;6.20;99.90;;;;;;5024003;28;20140;-80
2021/10/23 04:43:54;;;;;;;127.78;57.63;;;6.20;99.90;;;;;;4997752;28;20050;-80
2021/10/23 04:46:21;;;;;;;144.00;60.20;;;6.20;99.90;;;;;;4988779;28;20049;-79
2021/10/23 04:48:48;;;;;;;146.02;61.17;;;6.20;99.90;;;;;;5000561;28;20042;-78
2021/10/23 04:51:15;;;;;;;142.85;55.15;;;6.20;99.90;;;;;;5024021;28;20045;-79
2021/10/23 04:53:46;;;;;;;133.48;54.53;;;6.10;99.90;;;;;;4992378;28;20103;-79
2021/10/23 04:56:13;;;;;;;134.02;58.55;;;6.10;99.90;;;;;;5005145;28;20461;-79
2021/10/23 04:58:40;;;;;;;135.52;55.63;;;6.10;99.90;;;;;;4988992;28;20352;-79
2021/10/23 05:01:07;;;;;;;138.27;54.95;;;6.10;99.90;;;;;;5005203;28;20400;-79
2021/10/23 05:03:34;;;;;;;131.80;53.50;;;6.00;99.90;;;;;;4979274;28;20072;-80
2021/10/23 05:06:01;;;;;;;129.02;50.35;;;6.00;99.90;;;;;;5012031;28;20370;-79
2021/10/23 05:08:28;;;;;;;132.35;53.08;;;5.90;99.90;;;;;;5021473;28;20409;-80
2021/10/23 05:10:56;;;;;;;136.57;50.65;;;6.00;99.90;;;;;;5014869;28;20103;-79
2021/10/23 05:13:23;;;;;;;139.13;52.72;;;5.90;99.90;;;;;;5029288;28;20053;-80
2021/10/23 05:15:50;;;;;;;155.75;53.25;;;5.90;99.90;;;;;;5028288;28;20111;-79
2021/10/23 05:18:17;;;;;;;141.63;55.22;;;5.90;99.90;;;;;;5030513;28;20529;-80
2021/10/23 05:20:44;;;;;;;151.60;59.28;;;5.90;99.90;;;;;;5037716;28;20054;-80
2021/10/23 05:23:15;;;;;;;148.48;53.55;;;5.90;99.90;;;;;;5025396;28;20052;-80
2021/10/23 05:25:42;;;;;;;151.55;56.15;;;6.00;99.90;;;;;;5009366;28;20776;-80
2021/10/23 05:28:09;;;;;;;148.93;52.50;;;6.00;99.90;;;;;;5028611;28;20103;-80
2021/10/23 05:30:37;;;;;;;139.55;53.80;;;6.00;99.90;;;;;;5012140;28;20324;-80
2021/10/23 05:33:04;;;;;;;152.02;54.78;;;6.00;99.90;;;;;;5027756;28;20046;-80
2021/10/23 05:35:32;;;;;;;154.10;54.72;;;6.00;99.90;;;;;;5013919;28;20060;-80
2021/10/23 05:37:59;;;;;;;147.77;54.55;;;6.00;99.90;;;;;;4987140;28;20069;-79
2021/10/23 05:40:26;;;;;;;155.30;54.85;;;5.90;99.90;;;;;;5018354;28;20068;-79
2021/10/23 05:42:53;;;;;;;174.70;57.85;;;5.90;99.90;;;;;;5028114;28;20041;-80
2021/10/23 05:45:19;;;;;;;187.23;63.20;;;6.00;99.90;;;;;;5005263;28;20042;-80
2021/10/23 05:47:46;;;;;;;157.07;55.65;;;6.00;99.90;;;;;;5008800;28;20458;-79
2021/10/23 05:50:13;;;;;;;171.77;57.75;;;6.00;99.90;;;;;;5003475;28;20046;-80
2021/10/23 05:52:40;;;;;;;187.85;61.13;;;6.00;99.90;;;;;;5024191;28;20506;-79
2021/10/23 05:55:07;;;;;;;174.00;56.55;;;6.10;99.90;;;;;;5007831;28;20146;-80
2021/10/23 05:57:34;;;;;;;148.32;53.25;;;6.10;99.90;;;;;;4989289;28;20045;-78
2021/10/23 06:00:06;;;;;;;166.30;57.03;;;6.10;99.90;;;;;;5027739;28;20083;-79
2021/10/23 06:02:41;;;;;;;169.73;58.03;;;6.10;99.90;;;;;;5043400;28;20053;-79
2021/10/23 06:05:08;;;;;;;166.05;58.35;;;6.10;99.90;;;;;;5010433;28;20116;-78
2021/10/23 06:07:38;;;;;;;155.57;55.75;;;6.10;99.90;;;;;;5023965;28;20414;-79
2021/10/23 06:10:08;;;;;;;188.95;61.88;;;6.10;99.90;;;;;;5017459;28;20509;-79
2021/10/23 06:12:38;;;;;;;182.10;64.03;;;6.10;99.90;;;;;;5009840;28;20061;-81
2021/10/23 06:15:06;;;;;;;173.55;58.63;;;6.20;99.90;;;;;;5000031;28;20069;-79
2021/10/23 06:17:33;;;;;;;166.60;57.95;;;6.10;99.90;;;;;;5029538;28;20066;-79
2021/10/23 06:20:01;;;;;;;150.73;54.20;;;6.10;99.90;;;;;;5021617;28;20054;-80
2021/10/23 06:22:29;;;;;;;161.98;53.13;;;6.10;99.90;;;;;;5030208;28;20054;-80
2021/10/23 06:24:55;;;;;;;157.75;55.72;;;6.10;99.90;;;;;;5028240;28;20038;-80
2021/10/23 06:27:22;;;;;;;155.32;56.75;;;6.20;99.90;;;;;;5034879;28;20100;-80
2021/10/23 06:29:49;;;;;;;161.90;54.50;;;6.20;99.90;;;;;;5008549;28;20075;-80
2021/10/23 06:32:16;;;;;;;168.32;57.58;;;6.20;99.90;;;;;;5013023;28;20045;-80
2021/10/23 06:34:43;;;;;;;174.93;58.65;;;6.30;99.90;;;;;;5027241;28;20049;-80
2021/10/23 06:37:10;;;;;;;171.73;63.45;;;6.40;99.90;;;;;;5020570;28;20453;-81
2021/10/23 06:39:37;;;;;;;199.68;71.65;;;6.40;99.90;;;;;;5031022;28;20049;-80
2021/10/23 06:42:05;;;;;;;215.15;78.57;;;6.40;99.90;;;;;;5012344;28;20054;-80
2021/10/23 06:44:31;;;;;;;140.70;54.55;;;6.50;99.90;;;;;;5036146;28;20065;-80
2021/10/23 06:46:58;;;;;;;138.88;54.92;;;6.50;99.90;;;;;;4997767;28;20108;-80
2021/10/23 06:49:25;;;;;;;135.80;51.95;;;6.50;99.90;;;;;;5022020;28;20552;-79
2021/10/23 06:51:52;;;;;;;122.55;50.60;;;6.60;99.90;;;;;;5030405;28;20131;-80
2021/10/23 06:54:19;;;;;;;131.60;52.30;;;6.60;99.90;;;;;;5014001;28;20524;-80
2021/10/23 06:56:46;;;;;;;123.68;51.15;;;6.50;99.90;;;;;;5022666;28;20148;-80
2021/10/23 06:59:13;;;;;;;120.40;50.85;;;6.60;99.90;;;;;;5020589;28;20488;-80
2021/10/23 07:01:39;;;;;;;116.10;49.13;;;6.50;99.90;;;;;;5018027;28;20256;-80
2021/10/23 07:04:07;;;;;;;115.35;47.50;;;6.60;99.90;;;;;;5022486;28;20045;-79
2021/10/23 07:06:33;;;;;;;113.70;46.10;;;6.60;99.90;;;;;;5032592;28;20057;-80
2021/10/23 07:09:00;;;;;;;105.68;45.47;;;6.60;99.90;;;;;;5011510;28;20149;-79
2021/10/23 07:11:27;;;;;;;106.13;43.40;;;6.70;99.90;;;;;;5027468;28;20045;-80
2021/10/23 07:13:54;;;;;;;100.10;42.95;;;6.60;99.90;;;;;;5019696;28;20065;-80
2021/10/23 07:16:21;;;;;;;94.93;41.95;;;6.70;99.90;;;;;;4996026;28;20053;-80
2021/10/23 07:18:48;;;;;;;115.10;47.03;;;6.70;99.90;;;;;;5025287;28;20065;-80
2021/10/23 07:21:15;;;;;;;106.88;42.42;;;6.80;99.90;;;;;;5027744;28;20038;-80
2021/10/23 07:23:45;;;;;;;95.70;44.45;;;6.80;99.90;;;;;;5004461;28;20105;-79
2021/10/23 07:26:12;;;;;;;102.32;41.20;;;6.70;99.90;;;;;;4992957;28;20060;-79
2021/10/23 07:28:39;;;;;;;87.88;39.88;;;6.70;99.90;;;;;;5006216;28;20065;-79
2021/10/23 07:31:06;;;;;;;96.60;41.10;;;6.70;99.90;;;;;;4994687;28;20042;-80
2021/10/23 07:33:32;;;;;;;114.20;45.88;;;6.70;99.90;;;;;;5025577;28;20049;-80
2021/10/23 07:36:04;;;;;;;107.10;43.78;;;6.60;99.90;;;;;;5022813;28;20431;-81
2021/10/23 07:38:31;;;;;;;108.05;42.55;;;6.70;99.90;;;;;;4991889;28;20046;-81
2021/10/23 07:40:58;;;;;;;81.88;39.00;;;6.70;99.90;;;;;;4991038;28;20144;-80
2021/10/23 07:43:25;;;;;;;90.80;39.65;;;6.80;99.90;;;;;;4991998;28;20411;-81
2021/10/23 07:45:52;;;;;;;83.75;39.47;;;6.90;99.90;;;;;;4974705;28;20080;-81
2021/10/23 07:48:19;;;;;;;82.35;40.92;;;7.00;99.90;;;;;;5010093;28;20191;-80
2021/10/23 07:50:47;;;;;;;88.60;40.90;;;7.10;99.90;;;;;;5008188;28;20045;-80
2021/10/23 07:53:16;;;;;;;88.55;42.05;;;7.10;99.90;;;;;;4986031;28;20052;-80
2021/10/23 07:55:42;;;;;;;92.03;43.08;;;7.10;99.90;;;;;;5008751;28;20049;-80
2021/10/23 07:58:09;;;;;;;90.70;41.90;;;7.10;99.90;;;;;;5010582;28;20061;-80
2021/10/23 08:00:36;;;;;;;73.35;37.45;;;7.10;99.90;;;;;;4994462;28;20140;-81
2021/10/23 08:03:04;;;;;;;85.43;41.83;;;7.10;99.90;;;;;;5026002;28;20049;-79
2021/10/23 08:05:37;;;;;;;77.57;39.83;;;7.10;99.90;;;;;;5021031;28;20076;-81
2021/10/23 08:08:05;;;;;;;80.47;40.60;;;7.10;99.90;;;;;;5013093;28;20049;-80
2021/10/23 08:10:33;;;;;;;84.35;41.60;;;7.10;99.90;;;;;;5016795;28;20049;-78
2021/10/23 08:13:03;;;;;;;105.75;43.92;;;7.10;99.90;;;;;;5010872;28;20034;-80
2021/10/23 08:15:30;;;;;;;87.28;44.20;;;7.20;99.90;;;;;;5004615;28;20120;-79
2021/10/23 08:17:58;;;;;;;97.20;45.83;;;7.20;99.90;;;;;;5001696;28;20049;-79
2021/10/23 08:20:29;;;;;;;73.80;38.97;;;7.40;99.90;;;;;;5011753;28;20038;-81
2021/10/23 08:22:56;;;;;;;87.38;44.35;;;7.50;99.90;;;;;;5027638;28;20060;-79
2021/10/23 08:25:23;;;;;;;80.07;39.92;;;7.60;99.90;;;;;;5003971;28;20092;-78
2021/10/23 08:27:50;;;;;;;83.25;40.72;;;7.70;99.90;;;;;;5006531;28;20459;-79
2021/10/23 08:30:19;;;;;;;71.70;38.08;;;7.80;99.90;;;;;;5006985;28;20046;-79
2021/10/23 08:32:47;;;;;;;77.45;39.90;;;7.70;99.90;;;;;;5024010;28;20144;-79
2021/10/23 08:35:15;;;;;;;74.22;38.00;;;7.70;99.90;;;;;;5042222;28;20044;-79
2021/10/23 08:37:46;;;;;;;77.30;39.55;;;7.80;99.90;;;;;;4992579;28;20038;-79
2021/10/23 08:40:14;;;;;;;65.47;32.35;;;7.80;99.90;;;;;;5005696;28;20046;-79
2021/10/23 08:42:41;;;;;;;73.60;37.97;;;7.90;99.90;;;;;;5013770;28;20046;-79
2021/10/23 08:45:10;;;;;;;64.50;35.42;;;7.90;99.90;;;;;;5015775;28;20073;-79
2021/10/23 08:47:39;;;;;;;70.75;34.60;;;7.90;99.90;;;;;;5003888;28;20068;-79
2021/10/23 08:50:08;;;;;;;71.38;35.58;;;8.00;99.90;;;;;;5017022;28;20052;-79
2021/10/23 08:52:35;;;;;;;70.63;35.70;;;8.00;99.90;;;;;;5010312;28;20487;-79
2021/10/23 08:55:02;;;;;;;66.15;35.58;;;8.10;99.90;;;;;;5024521;28;20056;-80
2021/10/23 08:57:29;;;;;;;70.20;37.92;;;8.20;99.90;;;;;;5012813;28;20163;-79
2021/10/23 08:59:56;;;;;;;72.85;36.75;;;8.20;99.90;;;;;;4991299;28;20482;-79
2021/10/23 09:02:25;;;;;;;71.85;35.70;;;8.10;99.90;;;;;;4991475;28;20046;-80
2021/10/23 09:04:53;;;;;;;77.35;36.05;;;7.80;99.90;;;;;;5002181;28;20045;-79
2021/10/23 09:07:23;;;;;;;70.97;37.40;;;7.60;99.90;;;;;;5013695;28;20048;-79
2021/10/23 09:09:53;;;;;;;68.68;35.97;;;7.70;99.90;;;;;;5048593;22;20041;-76
2021/10/23 09:12:23;;;;;;;59.88;33.33;;;8.10;99.90;;;;;;5043567;28;20045;-77
2021/10/23 09:15:19;;;;;;;67.25;34.83;;;8.40;99.90;;;;;;5038829;28;20064;-76
2021/10/23 09:17:53;;;;;;;57.38;29.50;;;8.70;99.90;;;;;;5030057;28;20057;-76
2021/10/23 09:20:20;;;;;;;53.97;31.33;;;9.00;99.90;;;;;;5007482;28;20412;-76
2021/10/23 09:22:53;;;;;;;55.97;33.50;;;9.10;99.90;;;;;;5022624;28;20375;-78
2021/10/23 09:25:35;;;;;;;56.25;31.05;;;9.20;99.90;;;;;;5028989;28;20084;-76
2021/10/23 09:28:14;;;;;;;46.92;26.65;;;9.20;99.90;;;;;;5007118;28;20041;-76
2021/10/23 09:30:47;;;;;;;45.65;27.73;;;9.10;99.90;;;;;;5007579;28;20060;-78
2021/10/23 09:33:20;;;;;;;51.17;25.98;;;9.00;99.90;;;;;;5026532;28;20053;-76
2021/10/23 09:35:48;;;;;;;51.72;26.77;;;9.00;99.90;;;;;;4995571;28;20104;-77
2021/10/23 09:38:18;;;;;;;46.53;23.40;;;9.00;99.90;;;;;;5041374;28;20589;-78
2021/10/23 09:40:47;;;;;;;49.83;24.45;;;8.90;99.90;;;;;;5007737;28;20127;-77
2021/10/23 09:43:32;;;;;;;54.00;26.10;;;9.00;99.90;;;;;;5024517;28;20104;-78
2021/10/23 09:45:59;;;;;;;45.60;22.48;;;9.30;99.90;;;;;;5021823;28;20162;-76
2021/10/23 09:48:42;;;;;;;42.60;23.75;;;9.50;99.90;;;;;;5011892;28;20149;-78
2021/10/23 09:51:26;;;;;;;50.63;23.10;;;9.60;99.90;;;;;;5020197;28;20053;-77
2021/10/23 09:53:55;;;;;;;36.33;21.52;;;9.60;99.90;;;;;;5004390;28;20065;-75
2021/10/23 09:56:31;;;;;;;35.85;22.20;;;9.70;99.90;;;;;;5014574;28;20467;-76
2021/10/23 09:59:04;;;;;;;38.63;21.48;;;9.80;99.90;;;;;;5027178;28;20507;-76
2021/10/23 10:01:32;;;;;;;43.25;21.95;;;9.90;99.90;;;;;;5028029;28;20057;-76
2021/10/23 10:04:06;;;;;;;39.75;20.00;;;10.00;99.90;;;;;;5028606;28;20053;-77
2021/10/23 10:06:34;;;;;;;30.00;17.55;;;10.10;99.90;;;;;;5027399;28;20045;-76
2021/10/23 10:09:02;;;;;;;33.95;18.27;;;10.30;99.90;;;;;;5028546;28;20049;-76
2021/10/23 10:11:30;;;;;;;32.63;17.35;;;10.20;99.90;;;;;;5008616;28;20049;-76
2021/10/23 10:13:57;;;;;;;37.80;18.95;;;10.20;99.90;;;;;;5027656;28;20045;-76
2021/10/23 10:16:26;;;;;;;32.95;18.38;;;10.20;99.90;;;;;;5026059;28;20053;-76
2021/10/23 10:18:54;;;;;;;49.17;18.85;;;10.20;99.90;;;;;;5023125;28;20068;-76
2021/10/23 10:21:22;;;;;;;38.15;18.15;;;10.20;99.90;;;;;;5021983;28;20404;-76
2021/10/23 10:23:51;;;;;;;44.22;19.15;;;10.00;99.90;;;;;;5023938;28;20116;-75
2021/10/23 10:26:21;;;;;;;39.15;18.33;;;10.00;99.90;;;;;;5027911;28;20045;-75
2021/10/23 10:31:58;;;;;;;35.83;16.55;;;10.40;99.90;;;;;;5025840;28;20053;-76
2021/10/23 10:40:28;;;;;;;32.55;14.85;;;10.60;99.90;;;;;;5026721;28;20096;-76
2021/10/23 10:42:57;;;;;;;28.65;13.90;;;10.50;99.90;;;;;;5009189;28;20042;-76
2021/10/23 10:45:41;;;;;;;34.22;16.73;;;10.50;99.90;;;;;;5025261;28;20038;-76
2021/10/23 10:48:14;;;;;;;35.15;16.38;;;10.60;99.90;;;;;;5026834;28;20617;-76
2021/10/23 10:50:53;;;;;;;37.15;15.95;;;10.80;99.90;;;;;;4993719;28;20064;-76
2021/10/23 10:53:40;;;;;;;33.00;16.63;;;11.10;99.90;;;;;;5008155;28;20103;-76
2021/10/23 10:56:12;;;;;;;27.10;14.95;;;11.30;99.90;;;;;;5021154;28;20053;-75
2021/10/23 10:58:45;;;;;;;39.47;18.33;;;11.20;99.90;;;;;;5023182;28;20061;-76
2021/10/23 11:01:24;;;;;;;35.38;17.92;;;11.30;99.90;;;;;;5016221;28;20060;-76
2021/10/23 11:03:51;;;;;;;31.95;16.75;;;11.30;99.90;;;;;;5009601;28;20411;-75
2021/10/23 11:06:34;;;;;;;32.85;16.77;;;11.30;99.90;;;;;;5008642;28;20046;-76
2021/10/23 11:09:16;;;;;;;26.65;15.63;;;11.40;99.90;;;;;;5023580;28;20060;-76
2021/10/23 11:11:49;;;;;;;21.33;13.73;;;11.30;99.90;;;;;;5025055;28;20104;-75
2021/10/23 11:14:25;;;;;;;26.48;14.25;;;11.30;99.90;;;;;;5024816;28;20207;-75
2021/10/23 11:19:28;;;;;;;18.20;11.60;;;11.60;99.90;;;;;;5026351;28;20455;-76
2021/10/23 11:22:14;;;;;;;17.45;10.98;;;11.30;99.90;;;;;;4994028;28;20053;-76
2021/10/23 11:24:43;;;;;;;17.98;10.82;;;11.40;99.90;;;;;;5026406;28;20128;-76
2021/10/23 11:27:29;;;;;;;23.70;12.95;;;11.40;99.90;;;;;;5009156;28;20419;-76
2021/10/23 11:30:09;;;;;;;20.75;11.43;;;11.50;99.90;;;;;;5009675;28;20057;-76
2021/10/23 11:32:39;;;;;;;23.75;12.95;;;11.80;99.90;;;;;;5027422;28;20357;-76
2021/10/23 11:35:07;;;;;;;20.30;11.68;;;11.80;99.90;;;;;;5009310;28;20436;-76
2021/10/23 11:37:34;;;;;;;15.88;9.95;;;11.90;99.90;;;;;;5026477;28;20049;-76
2021/10/23 11:40:06;;;;;;;19.40;11.05;;;11.80;99.90;;;;;;5041818;28;20069;-76
2021/10/23 11:42:35;;;;;;;20.20;11.88;;;11.80;99.90;;;;;;5027612;28;20053;-76
2021/10/23 11:45:15;;;;;;;20.98;12.70;;;11.80;99.90;;;;;;5033909;28;20254;-75
2021/10/23 11:48:05;;;;;;;23.48;12.52;;;11.80;99.90;;;;;;5011421;28;20421;-77
2021/10/23 11:50:33;;;;;;;;;;;11.60;99.90;;;;;;5020888;28;20057;-77
2021/10/23 11:53:10;;;;;;;28.08;14.60;;;11.40;99.90;;;;;;5025994;28;19971;-76
2021/10/23 11:55:44;;;;;;;24.45;13.32;;;11.10;99.90;;;;;;5025471;28;20049;-76
2021/10/23 11:58:17;;;;;;;23.52;11.77;;;11.00;99.90;;;;;;5025545;28;20467;-77
2021/10/23 12:00:57;;;;;;;25.65;11.82;;;10.70;99.90;;;;;;5023638;28;20111;-77
2021/10/23 12:03:41;;;;;;;28.77;12.13;;;10.70;99.90;;;;;;5025408;28;20056;-77
2021/10/23 12:06:18;;;;;;;21.67;11.35;;;10.70;99.90;;;;;;5023946;28;20057;-76
2021/10/23 12:08:46;;;;;;;21.02;10.75;;;10.70;99.90;;;;;;5025077;28;20511;-76
2021/10/23 12:11:19;;;;;;;26.77;11.05;;;10.70;99.90;;;;;;5007401;28;20088;-76
2021/10/23 12:14:11;;;;;;;20.48;10.82;;;10.60;99.90;;;;;;5026202;28;20142;-77
2021/10/23 12:16:40;;;;;;;20.77;10.00;;;10.50;99.90;;;;;;5052482;28;20061;-76
2021/10/23 12:19:31;;;;;;;26.13;11.63;;;10.50;99.90;;;;;;5024921;28;20487;-77
2021/10/23 12:22:04;;;;;;;19.30;11.07;;;10.50;99.90;;;;;;5057501;28;20378;-76
2021/10/23 12:24:44;;;;;;;26.60;12.18;;;10.50;99.90;;;;;;5023904;28;20053;-77
2021/10/23 12:27:20;;;;;;;20.77;9.20;;;10.50;99.90;;;;;;5025169;28;20049;-76
2021/10/23 12:29:59;;;;;;;21.83;9.52;;;10.50;99.90;;;;;;5022902;28;20519;-77
2021/10/23 12:32:26;;;;;;;13.68;8.60;;;10.60;99.90;;;;;;5005398;28;20050;-77
2021/10/23 12:34:55;;;;;;;16.20;9.38;;;10.60;99.90;;;;;;5024075;28;20061;-77
2021/10/23 12:37:32;;;;;;;20.40;10.45;;;10.40;99.90;;;;;;5023125;28;20057;-74
2021/10/23 12:40:27;;;;;;;19.83;11.18;;;10.50;99.90;;;;;;5004930;28;20050;-72
2021/10/23 12:43:14;;;;;;;17.77;9.90;;;10.50;99.90;;;;;;4995772;28;20484;-72
2021/10/23 12:45:43;;;;;;;19.60;10.60;;;10.90;99.90;;;;;;5023304;28;20057;-72
2021/10/23 12:48:15;;;;;;;15.50;7.85;;;11.00;99.90;;;;;;5003790;28;20459;-71
2021/10/23 12:50:44;;;;;;;12.27;7.88;;;10.80;99.90;;;;;;5020945;28;20100;-70
2021/10/23 12:53:12;;;;;;;12.73;7.50;;;10.70;99.90;;;;;;5015440;28;20525;-72
2021/10/23 12:55:39;;;;;;;14.15;8.18;;;10.70;99.90;;;;;;5021375;28;20057;-74